createdAt,value
2022-12-13T00:03:01.451Z,84.08
2022-12-13T00:08:03.255Z,83.89
2022-12-13T00:13:05.051Z,82.47
2022-12-13T00:18:07.168Z,83.30
2022-12-13T00:23:08.924Z,81.86
2022-12-13T00:28:11.271Z,82.81
2022-12-13T00:33:12.959Z,81.44
2022-12-13T00:38:14.835Z,80.62
2022-12-13T00:43:16.723Z,81.39
2022-12-13T00:48:18.391Z,81.78
2022-12-13T00:53:20.049Z,80.48
2022-12-13T00:58:21.711Z,81.02
2022-12-13T01:03:25.613Z,80.64
2022-12-13T01:08:29.044Z,79.71
2022-12-13T01:13:30.794Z,80.60
2022-12-13T01:18:32.849Z,81.98
2022-12-13T01:23:35.111Z,82.79
2022-12-13T01:28:36.986Z,83.30
2022-12-13T01:33:39.708Z,82.86
2022-12-13T01:38:41.824Z,81.99
2022-12-13T01:43:43.418Z,82.49
2022-12-13T01:49:19.531Z,83.46
2022-12-13T01:54:33.544Z,82.40
2022-12-13T01:59:39.891Z,82.04
2022-12-13T02:04:57.365Z,82.88
2022-12-13T02:10:01.464Z,81.96
2022-12-13T02:15:08.574Z,81.41
2022-12-13T02:20:51.122Z,80.89
2022-12-13T02:25:55.420Z,81.37
2022-12-13T02:31:18.360Z,81.19
2022-12-13T02:36:27.660Z,81.05
2022-12-13T02:41:39.473Z,81.38
2022-12-13T02:46:49.010Z,80.68
2022-12-13T02:51:52.471Z,81.09
2022-12-13T02:56:56.125Z,81.40
2022-12-13T03:02:09.606Z,81.25
2022-12-13T03:07:33.305Z,80.64
2022-12-13T03:12:57.827Z,80.67
2022-12-13T03:18:05.684Z,81.88
2022-12-13T03:23:11.201Z,80.92
2022-12-13T03:28:13.301Z,81.52
2022-12-13T03:33:15.029Z,81.25
2022-12-13T03:38:21.844Z,82.05
2022-12-13T03:43:25.351Z,81.66
2022-12-13T03:48:27.463Z,81.73
2022-12-13T03:53:33.719Z,82.12
2022-12-13T03:58:38.268Z,82.63
2022-12-13T04:03:41.775Z,82.75
2022-12-13T04:08:43.523Z,82.68
2022-12-13T04:13:45.176Z,82.54
2022-12-13T04:18:46.867Z,83.21
2022-12-13T04:23:48.511Z,83.89
2022-12-13T04:28:54.412Z,84.02
2022-12-13T04:33:56.507Z,84.34
2022-12-13T04:38:58.172Z,84.70
2022-12-13T04:44:04.214Z,84.49
2022-12-13T04:49:05.905Z,85.82
2022-12-13T04:54:24.284Z,83.29
2022-12-13T04:59:26.419Z,82.70
2022-12-13T05:04:32.667Z,82.58
2022-12-13T05:09:35.806Z,83.14
2022-12-13T05:14:37.481Z,84.23
2022-12-13T05:19:39.117Z,84.27
2022-12-13T05:24:42.008Z,84.49
2022-12-13T05:29:43.755Z,84.41
2022-12-13T05:34:45.409Z,84.51
2022-12-13T05:39:47.057Z,83.96
2022-12-13T05:44:48.730Z,83.07
2022-12-13T05:49:50.430Z,83.77
2022-12-13T05:54:56.451Z,83.36
2022-12-13T06:00:06.033Z,83.15
2022-12-13T06:05:27.849Z,80.29
2022-12-13T06:10:34.603Z,81.85
2022-12-13T06:15:38.245Z,82.50
2022-12-13T06:20:56.553Z,83.48
2022-12-13T06:25:58.683Z,82.59
2022-12-13T06:31:02.451Z,82.78
2022-12-13T06:36:05.905Z,83.67
2022-12-13T06:41:16.808Z,83.23
2022-12-13T06:46:18.634Z,83.14
2022-12-13T06:51:22.549Z,82.61
2022-12-13T06:56:24.447Z,81.72
2022-12-13T07:01:26.237Z,80.70
2022-12-13T07:06:28.117Z,80.48
2022-12-13T07:11:33.221Z,81.51
2022-12-13T07:16:35.921Z,82.56
2022-12-13T07:21:39.070Z,82.32
2022-12-13T07:26:40.759Z,83.79
2022-12-13T07:31:43.327Z,80.64
2022-12-13T07:36:46.597Z,80.41
2022-12-13T07:41:48.337Z,81.40
2022-12-13T07:46:50.232Z,81.33
2022-12-13T07:51:52.172Z,82.25
2022-12-13T07:56:58.566Z,80.54
2022-12-13T08:02:06.614Z,76.11
2022-12-13T08:07:09.341Z,76.07
2022-12-13T08:12:11.194Z,76.01
2022-12-13T08:17:12.983Z,77.90
2022-12-13T08:22:14.912Z,77.95
2022-12-13T08:27:25.593Z,78.38
2022-12-13T08:32:27.305Z,78.10
2022-12-13T08:37:28.956Z,77.43
2022-12-13T08:42:30.648Z,74.14
2022-12-13T08:47:34.533Z,74.67
2022-12-13T08:52:41.517Z,75.76
2022-12-13T08:57:45.197Z,74.38
2022-12-13T09:02:46.889Z,72.50
2022-12-13T09:07:48.595Z,73.32
2022-12-13T09:12:50.501Z,74.41
2022-12-13T09:17:52.997Z,74.02
2022-12-13T09:23:02.177Z,73.66
2022-12-13T09:28:06.992Z,74.43
2022-12-13T09:33:28.203Z,74.52
2022-12-13T09:38:30.438Z,75.13
2022-12-13T09:43:43.170Z,75.52
2022-12-13T09:48:48.149Z,75.63
2022-12-13T09:53:52.815Z,74.92
2022-12-13T09:58:56.517Z,75.01
2022-12-13T10:04:00.266Z,74.65
2022-12-13T10:09:02.075Z,74.33
2022-12-13T10:14:15.787Z,74.93
2022-12-13T10:19:33.739Z,73.35
2022-12-13T10:24:49.889Z,73.52
2022-12-13T10:30:12.698Z,73.40
2022-12-13T10:35:26.517Z,73.24
2022-12-13T10:40:35.661Z,74.00
2022-12-13T10:45:37.738Z,73.55
2022-12-13T10:50:39.705Z,73.11
2022-12-13T10:55:42.486Z,73.00
2022-12-13T11:00:46.311Z,70.76
2022-12-13T11:06:02.866Z,69.90
2022-12-13T11:11:06.871Z,63.56
2022-12-13T11:16:30.551Z,60.45
2022-12-13T11:21:36.764Z,53.12
2022-12-13T11:26:42.826Z,46.29
2022-12-13T11:31:51.423Z,44.97
2022-12-13T11:37:01.645Z,44.53
2022-12-13T11:42:15.411Z,45.74
2022-12-13T11:47:25.234Z,46.37
2022-12-13T11:52:40.952Z,46.83
2022-12-13T11:57:54.909Z,49.75
2022-12-13T12:03:06.491Z,54.46
2022-12-13T12:08:32.267Z,51.78
2022-12-13T12:13:51.114Z,52.55
2022-12-13T12:18:53.822Z,51.28
2022-12-13T12:24:09.609Z,51.73
2022-12-13T12:29:17.694Z,56.36
2022-12-13T12:34:51.739Z,59.73
2022-12-13T12:40:27.068Z,60.69
2022-12-13T12:46:11.578Z,63.92
2022-12-13T12:51:30.418Z,63.89
2022-12-13T12:56:50.397Z,63.90
2022-12-13T13:02:07.701Z,66.56
2022-12-13T13:07:39.708Z,64.74
2022-12-13T13:12:43.141Z,66.75
2022-12-13T13:17:46.806Z,68.88
2022-12-13T13:23:03.932Z,67.42
2022-12-13T13:28:17.262Z,68.10
2022-12-13T13:33:49.571Z,67.70
2022-12-13T13:38:53.431Z,67.85
2022-12-13T13:43:55.259Z,68.08
2022-12-13T13:49:10.126Z,68.49
2022-12-13T13:54:26.752Z,68.87
2022-12-13T13:59:53.219Z,70.56
2022-12-13T14:05:06.879Z,70.66
2022-12-13T14:10:27.176Z,70.30
2022-12-13T14:15:56.129Z,70.18
2022-12-13T14:21:22.388Z,69.89
2022-12-13T14:26:44.444Z,70.77
2022-12-13T14:31:53.463Z,71.76
2022-12-13T14:37:06.322Z,72.00
2022-12-13T14:42:24.858Z,72.71
2022-12-13T14:47:27.383Z,73.39
2022-12-13T14:52:35.574Z,74.15
2022-12-13T14:57:37.291Z,74.94
2022-12-13T15:02:51.044Z,75.51
2022-12-13T15:07:53.379Z,75.81
2022-12-13T15:12:55.861Z,75.40
2022-12-13T15:18:09.875Z,75.65
2022-12-13T15:23:30.100Z,77.03
2022-12-13T15:28:39.764Z,77.10
2022-12-13T15:33:48.385Z,77.80
2022-12-13T15:38:53.572Z,79.09
2022-12-13T15:44:03.362Z,79.67
2022-12-13T15:49:16.399Z,80.11
2022-12-13T15:54:21.802Z,79.55
2022-12-13T15:59:44.134Z,78.94
2022-12-13T16:04:46.436Z,79.99
2022-12-13T16:09:50.682Z,81.66
2022-12-13T16:14:52.596Z,82.22
2022-12-13T16:20:09.817Z,81.98
2022-12-13T16:25:14.451Z,82.82
2022-12-13T16:30:24.457Z,83.91
2022-12-13T16:35:26.364Z,83.97
2022-12-13T16:40:33.230Z,83.20
2022-12-13T16:45:42.059Z,83.55
2022-12-13T16:50:57.600Z,83.71
2022-12-13T16:56:00.130Z,84.48
2022-12-13T17:01:02.880Z,84.16
2022-12-13T17:06:05.706Z,83.77
2022-12-13T17:11:14.619Z,84.01
2022-12-13T17:16:19.940Z,83.54
2022-12-13T17:21:26.183Z,83.39
2022-12-13T17:26:29.681Z,84.33
2022-12-13T17:31:35.821Z,85.02
2022-12-13T17:36:37.997Z,84.54
2022-12-13T17:41:40.082Z,84.78
2022-12-13T17:46:42.203Z,85.55
2022-12-13T17:51:56.918Z,85.77
2022-12-13T17:56:58.998Z,86.07
2022-12-13T18:02:02.601Z,86.18
2022-12-13T18:07:04.404Z,86.22
2022-12-13T18:12:08.581Z,86.01
2022-12-13T18:17:10.892Z,85.36
2022-12-13T18:22:12.888Z,84.68
2022-12-13T18:27:14.936Z,85.40
2022-12-13T18:32:16.678Z,86.35
2022-12-13T18:37:18.329Z,86.80
2022-12-13T18:42:20.187Z,85.62
2022-12-13T18:47:22.078Z,85.88
2022-12-13T18:52:24.043Z,85.87
2022-12-13T18:57:26.204Z,86.66
2022-12-13T19:02:34.075Z,85.10
2022-12-13T19:07:36.596Z,85.48
2022-12-13T19:12:38.464Z,85.37
2022-12-13T19:17:40.086Z,85.46
2022-12-13T19:22:41.740Z,85.85
2022-12-13T19:27:46.675Z,85.84
2022-12-13T19:32:48.464Z,85.67
2022-12-13T19:37:50.132Z,86.35
2022-12-13T19:42:51.887Z,86.14
2022-12-13T19:47:53.540Z,87.86
2022-12-13T19:52:55.345Z,89.09
2022-12-13T19:57:57.826Z,88.34
2022-12-13T20:02:59.554Z,87.74
2022-12-13T20:08:01.542Z,87.22
2022-12-13T20:13:03.501Z,86.22
2022-12-13T20:18:05.226Z,85.63
2022-12-13T20:23:06.827Z,84.11
2022-12-13T20:28:12.667Z,85.40
2022-12-13T20:33:16.106Z,86.45
2022-12-13T20:38:18.276Z,87.63
2022-12-13T20:43:20.092Z,87.54
2022-12-13T20:48:22.307Z,86.55
2022-12-13T20:53:24.544Z,85.86
2022-12-13T20:58:27.418Z,84.75
2022-12-13T21:03:29.148Z,85.56
2022-12-13T21:08:49.479Z,85.28
2022-12-13T21:14:03.634Z,84.46
2022-12-13T21:19:21.509Z,84.67
2022-12-13T21:24:28.276Z,84.91
2022-12-13T21:29:41.376Z,85.93
2022-12-13T21:34:44.435Z,86.57
2022-12-13T21:39:49.822Z,85.29
2022-12-13T21:44:52.281Z,86.21
2022-12-13T21:49:53.923Z,86.56
2022-12-13T21:55:15.316Z,87.01
2022-12-13T22:00:17.492Z,87.57
2022-12-13T22:05:19.216Z,87.91
2022-12-13T22:10:26.304Z,87.42
2022-12-13T22:15:28.515Z,88.33
2022-12-13T22:20:33.556Z,88.20
2022-12-13T22:25:36.329Z,87.68
2022-12-13T22:30:38.089Z,87.59
2022-12-13T22:35:40.173Z,86.80
2022-12-13T22:40:42.375Z,86.32
2022-12-13T22:45:46.184Z,87.51
2022-12-13T22:50:48.457Z,88.10
2022-12-13T22:55:52.622Z,88.24
2022-12-13T23:00:55.642Z,87.23
2022-12-13T23:06:15.929Z,86.25
2022-12-13T23:11:36.611Z,85.72
2022-12-13T23:16:39.291Z,85.38
2022-12-13T23:21:41.458Z,85.80
2022-12-13T23:26:50.163Z,85.26
2022-12-13T23:31:52.051Z,85.15
2022-12-13T23:36:53.657Z,86.18
2022-12-13T23:41:55.363Z,85.11
2022-12-13T23:46:57.026Z,86.95
2022-12-13T23:51:58.633Z,87.04
2022-12-13T23:57:01.355Z,86.78
